Terminal Aerodrome Forecast
Issued by NWS

Home | Current Version | Previous Version | Text Only | Print | Product List | Glossary On
Versions: 1 2 3 4 5 6 7 8 9 10 11 12 13 14 15 16 17 18 19
888
FTUS43 KDVN 092342
TAFCID
TAF
KCID 092342Z 1000/1024 VRB03KT P6SM SCT025 BKN080
     FM101600 16005KT P6SM OVC050
     FM102000 17008KT 1SM -SN BR OVC015=

USA.gov is the U.S. government's official web portal to all federal, state and local government web resources and services.